Time;durP1;ratioP1;P1;durP2;ratioP2;P2;SDS_P1;SDS_P2;PMS_P1;PMS_P2;Temp;Humidity;BMP_temperature;BMP_pressure;BME280_temperature;BME280_humidity;BME280_pressure;Samples;Min_cycle;Max_cycle;Signal;HPM_P1;HPM_P2
2023/04/20 00:02:24;;;;;;;4.13;3.73;;;;;;;7.25;66.19;98706.72;4980661;28;103745;-57
2023/04/20 00:04:53;;;;;;;4.72;4.30;;;;;;;7.37;65.55;98708.63;4983873;28;102892;-57
2023/04/20 00:07:23;;;;;;;5.10;4.60;;;;;;;7.03;66.23;98706.28;4983955;28;104407;-57
2023/04/20 00:09:52;;;;;;;5.45;4.95;;;;;;;6.78;67.06;98696.34;4988433;28;103390;-56
2023/04/20 00:12:20;;;;;;;5.55;4.50;;;;;;;6.92;66.41;98699.00;4962691;28;103172;-57
2023/04/20 00:14:48;;;;;;;11.57;9.32;;;;;;;6.84;67.16;98693.34;4994915;28;103113;-57
2023/04/20 00:17:16;;;;;;;13.60;10.82;;;;;;;7.09;66.16;98684.91;4991010;28;104353;-57
2023/04/20 00:19:45;;;;;;;12.60;10.70;;;;;;;7.06;65.37;98688.56;4994626;28;103426;-56
2023/04/20 00:22:13;;;;;;;10.70;9.02;;;;;;;7.24;65.62;98689.28;4992174;28;103121;-56
2023/04/20 00:24:43;;;;;;;7.53;6.77;;;;;;;7.26;65.66;98680.34;4992290;28;103174;-56
2023/04/20 00:27:13;;;;;;;6.50;5.63;;;;;;;7.35;64.97;98685.06;4985726;27;103414;-56
2023/04/20 00:29:40;;;;;;;7.03;6.13;;;;;;;7.05;66.29;98675.50;4983917;28;106277;-57
2023/04/20 00:32:08;;;;;;;6.57;5.97;;;;;;;6.98;66.49;98675.03;4981923;28;102795;-57
2023/04/20 00:34:36;;;;;;;7.05;6.43;;;;;;;6.53;67.02;98675.03;4984834;28;102891;-56
2023/04/20 00:37:05;;;;;;;7.30;6.60;;;;;;;5.91;69.53;98671.47;5000785;28;104172;-57
2023/04/20 00:39:33;;;;;;;6.47;5.87;;;;;;;6.70;68.17;98661.78;4991273;28;103745;-57
2023/04/20 00:42:06;;;;;;;8.83;6.83;;;;;;;5.79;69.38;98662.44;4986846;28;102821;-56
2023/04/20 00:44:36;;;;;;;9.27;6.75;;;;;;;5.61;70.69;98655.56;4990507;28;102935;-57
2023/04/20 00:47:04;;;;;;;7.30;6.60;;;;;;;6.12;67.89;98651.91;4995792;28;103474;-57
2023/04/20 00:49:33;;;;;;;6.97;6.28;;;;;;;6.55;67.83;98644.28;4984505;28;103656;-57
2023/04/20 00:52:01;;;;;;;7.85;7.05;;;;;;;6.41;66.88;98650.31;4994369;28;103304;-57
2023/04/20 00:54:32;;;;;;;7.57;6.88;;;;;;;5.70;69.91;98647.19;4987551;28;103089;-57
2023/04/20 00:57:01;;;;;;;7.57;6.85;;;;;;;5.80;69.09;98631.84;4981966;28;102954;-57
2023/04/20 00:59:29;;;;;;;6.20;5.60;;;;;;;6.26;68.91;98641.50;4989917;28;103359;-56
2023/04/20 01:01:58;;;;;;;6.60;6.00;;;;;;;6.63;67.71;98636.81;4988826;28;102770;-56
2023/04/20 01:04:27;;;;;;;6.32;5.72;;;;;;;6.51;66.55;98632.28;4999764;28;103302;-57
2023/04/20 01:06:55;;;;;;;5.97;5.37;;;;;;;6.68;67.26;98627.72;4986565;28;104560;-57
2023/04/20 01:09:26;;;;;;;6.25;5.53;;;;;;;6.68;66.63;98621.66;4989647;28;103318;-57
2023/04/20 01:11:54;;;;;;;5.47;4.97;;;;;;;6.83;66.57;98615.50;4988154;28;103228;-56
2023/04/20 01:14:22;;;;;;;5.68;5.07;;;;;;;6.76;66.49;98620.28;4990126;28;102734;-56
2023/04/20 01:16:50;;;;;;;4.80;4.30;;;;;;;6.85;66.12;98614.47;4983112;28;103210;-57
2023/04/20 01:19:20;;;;;;;4.93;4.22;;;;;;;6.98;65.67;98612.84;4981845;28;103081;-57
2023/04/20 01:21:48;;;;;;;4.53;4.13;;;;;;;7.06;65.02;98596.63;4991508;28;103035;-56
2023/04/20 01:24:17;;;;;;;6.45;5.28;;;;;;;5.81;69.97;98596.84;4992344;28;103342;-57
2023/04/20 01:26:45;;;;;;;6.18;4.88;;;;;;;5.75;71.83;98597.97;4983268;28;105367;-56
2023/04/20 01:29:13;;;;;;;4.35;3.95;;;;;;;6.42;69.22;98591.66;4993095;28;103044;-58
2023/04/20 01:31:42;;;;;;;4.93;4.35;;;;;;;6.73;67.26;98588.09;4982993;28;103248;-57
2023/04/20 01:34:11;;;;;;;6.72;5.22;;;;;;;6.29;67.83;98583.63;4990899;28;102862;-56
2023/04/20 01:36:39;;;;;;;4.90;4.40;;;;;;;6.56;67.92;98577.72;4965045;28;104490;-56
2023/04/20 01:39:08;;;;;;;4.88;4.40;;;;;;;6.50;67.55;98575.47;4982198;28;104828;-56
2023/04/20 01:41:37;;;;;;;5.33;4.83;;;;;;;6.54;66.60;98574.38;4982817;28;102749;-56
2023/04/20 01:44:05;;;;;;;5.97;5.38;;;;;;;5.50;71.62;98573.22;4988678;28;103046;-57
2023/04/20 01:46:36;;;;;;;3.97;3.50;;;;;;;6.30;69.93;98564.34;4982031;28;103726;-56
2023/04/20 01:49:04;;;;;;;4.57;4.18;;;;;;;6.22;69.48;98565.69;4990539;28;104342;-57
2023/04/20 01:51:32;;;;;;;7.20;4.95;;;;;;;6.06;67.42;98560.50;4978459;28;102968;-55
2023/04/20 01:54:01;;;;;;;5.13;4.63;;;;;;;6.32;68.86;98557.22;5001780;28;102683;-54
2023/04/20 01:56:29;;;;;;;5.90;5.30;;;;;;;6.28;67.53;98555.72;4986349;28;103270;-54
2023/04/20 01:59:01;;;;;;;4.65;4.25;;;;;;;6.50;67.70;98555.31;4985975;28;103397;-55
2023/04/20 02:01:29;;;;;;;7.13;5.10;;;;;;;6.14;66.72;98547.78;4978811;28;103485;-54
2023/04/20 02:03:57;;;;;;;5.00;4.50;;;;;;;6.02;69.82;98543.22;4995555;28;103380;-54
2023/04/20 02:06:26;;;;;;;5.20;4.47;;;;;;;6.34;68.14;98539.59;4996355;28;103298;-54
2023/04/20 02:08:54;;;;;;;6.20;5.60;;;;;;;4.90;71.27;98544.09;4990322;28;103342;-55
2023/04/20 02:11:22;;;;;;;7.00;5.88;;;;;;;4.83;72.94;98542.69;5001144;28;102696;-54
2023/04/20 02:13:50;;;;;;;5.72;5.07;;;;;;;5.71;71.88;98541.44;4981123;28;102723;-55
2023/04/20 02:16:20;;;;;;;5.20;4.63;;;;;;;6.13;69.63;98540.84;4981584;28;104557;-55
2023/04/20 02:18:48;;;;;;;5.75;5.18;;;;;;;6.22;68.37;98548.19;4991120;28;103212;-54
2023/04/20 02:21:16;;;;;;;5.65;5.07;;;;;;;6.09;68.13;98544.56;4989162;28;102736;-54
2023/04/20 02:23:44;;;;;;;6.57;5.80;;;;;;;5.57;68.94;98540.47;4983152;28;102857;-55
2023/04/20 02:26:12;;;;;;;5.20;4.72;;;;;;;5.60;71.20;98537.69;4987359;28;104418;-54
2023/04/20 02:28:40;;;;;;;7.45;6.65;;;;;;;5.15;70.66;98534.00;4979199;28;104060;-57
2023/04/20 02:31:10;;;;;;;7.63;6.30;;;;;;;5.54;70.21;98533.63;4987690;28;102613;-54
2023/04/20 02:33:40;;;;;;;6.80;6.10;;;;;;;5.82;69.83;98525.09;4979898;28;102940;-54
2023/04/20 02:36:09;;;;;;;5.63;5.05;;;;;;;6.08;69.16;98516.66;4995897;28;103410;-55
2023/04/20 02:38:39;;;;;;;6.80;5.37;;;;;;;5.89;69.55;98521.25;4986573;28;104300;-57
2023/04/20 02:41:07;;;;;;;6.50;5.80;;;;;;;4.41;72.79;98523.94;4987001;28;102924;-57
2023/04/20 02:43:35;;;;;;;7.60;6.30;;;;;;;4.79;73.70;98520.22;4987556;28;103097;-57
2023/04/20 02:46:04;;;;;;;6.38;5.50;;;;;;;5.05;73.28;98521.50;4987239;28;103214;-57
2023/04/20 02:48:32;;;;;;;6.33;5.37;;;;;;;5.66;71.37;98516.41;4976551;28;103352;-54
2023/04/20 02:51:02;;;;;;;5.70;5.03;;;;;;;5.87;69.63;98511.78;5006969;27;102832;-54
2023/04/20 02:53:39;;;;;;;5.30;4.80;;;;;;;5.80;69.00;98511.25;4985361;28;103064;-55
2023/04/20 02:56:33;;;;;;;5.22;4.70;;;;;;;5.79;69.02;98499.91;4985261;28;103426;-54
2023/04/20 02:59:05;;;;;;;5.22;4.72;;;;;;;5.95;68.00;98505.16;4965863;28;106185;-55
2023/04/20 03:01:41;;;;;;;5.00;4.50;;;;;;;6.08;67.29;98506.16;4968755;28;103016;-55
2023/04/20 03:04:15;;;;;;;6.18;5.20;;;;;;;5.55;68.34;98506.53;4991358;28;103877;-54
2023/04/20 03:06:52;;;;;;;6.50;5.80;;;;;;;4.83;69.37;98505.22;4983671;28;104420;-55
2023/04/20 03:09:27;;;;;;;6.35;5.75;;;;;;;5.02;71.90;98506.78;4979400;28;103499;-54
2023/04/20 03:11:55;;;;;;;9.18;5.97;;;;;;;4.75;70.96;98496.91;4983330;28;102696;-55
2023/04/20 03:14:58;;;;;;;6.85;6.20;;;;;;;4.66;72.54;98503.44;4976421;28;102809;-55
2023/04/20 03:17:42;;;;;;;6.10;5.50;;;;;;;3.97;74.84;98500.84;4978898;28;103465;-55
2023/04/20 03:20:12;;;;;;;5.07;4.53;;;;;;;4.92;73.71;98495.09;4981394;28;104345;-54
2023/04/20 03:22:41;;;;;;;4.40;3.90;;;;;;;5.44;71.51;98500.16;4976325;28;102984;-54
2023/04/20 03:25:10;;;;;;;5.80;5.30;;;;;;;5.50;70.05;98502.47;4984512;28;103305;-54
2023/04/20 03:27:57;;;;;;;6.50;5.90;;;;;;;5.00;70.49;98485.06;4980053;28;103654;-54
2023/04/20 03:30:25;;;;;;;6.93;6.22;;;;;;;4.41;73.16;98495.16;4983750;28;104172;-54
2023/04/20 03:33:03;;;;;;;6.90;6.20;;;;;;;4.28;74.63;98496.72;4980715;28;102990;-54
2023/04/20 03:35:31;;;;;;;5.40;4.90;;;;;;;4.90;73.65;98491.72;4989698;28;103101;-54
2023/04/20 03:38:01;;;;;;;7.50;6.05;;;;;;;4.82;71.72;98493.06;4985336;28;103330;-54
2023/04/20 03:40:29;;;;;;;6.90;5.70;;;;;;;4.91;72.83;98492.56;4985135;28;103060;-55
2023/04/20 03:42:57;;;;;;;6.38;5.78;;;;;;;4.97;71.45;98487.84;4985766;28;102667;-54
2023/04/20 03:45:25;;;;;;;5.90;5.30;;;;;;;4.83;71.68;98492.97;4994414;28;102634;-56
2023/04/20 03:47:53;;;;;;;6.28;5.70;;;;;;;4.80;72.78;98490.50;4985933;28;103293;-57
2023/04/20 03:50:22;;;;;;;5.82;5.32;;;;;;;4.71;72.01;98480.53;4979444;28;103678;-57
2023/04/20 03:52:50;;;;;;;5.38;4.88;;;;;;;5.10;71.21;98483.66;4987685;28;102916;-54
2023/04/20 03:55:19;;;;;;;5.55;5.05;;;;;;;4.88;71.00;98483.13;4983059;28;102810;-57
2023/04/20 03:57:54;;;;;;;5.43;4.93;;;;;;;5.01;71.09;98483.28;4987015;28;104575;-57
2023/04/20 04:00:24;;;;;;;6.00;5.40;;;;;;;5.26;70.81;98484.53;4982146;28;104644;-56
2023/04/20 04:03:02;;;;;;;6.30;5.70;;;;;;;5.37;69.36;98480.47;4987029;28;102651;-57
2023/04/20 04:05:33;;;;;;;7.35;5.60;;;;;;;4.34;71.80;98483.34;4988046;28;102997;-54
2023/04/20 04:08:03;;;;;;;6.13;5.57;;;;;;;3.90;74.59;98481.16;4982470;28;103385;-55
2023/04/20 04:10:33;;;;;;;6.82;5.93;;;;;;;3.86;75.17;98484.84;4971816;28;105633;-55
2023/04/20 04:13:01;;;;;;;6.05;5.55;;;;;;;4.38;74.02;98485.72;4991903;28;102812;-55
2023/04/20 04:15:31;;;;;;;5.05;4.65;;;;;;;4.77;73.35;98480.22;4989715;28;103071;-55
2023/04/20 04:18:04;;;;;;;5.38;4.70;;;;;;;5.18;71.60;98481.47;4993478;28;103337;-56
2023/04/20 04:20:34;;;;;;;5.03;4.63;;;;;;;5.34;70.28;98483.25;4993137;28;103607;-55
2023/04/20 04:23:02;;;;;;;4.90;4.40;;;;;;;5.44;69.79;98482.69;4993705;28;102637;-56
2023/04/20 04:25:39;;;;;;;5.43;4.93;;;;;;;5.53;68.91;98481.34;4986894;28;102931;-56
2023/04/20 04:28:09;;;;;;;6.97;6.10;;;;;;;4.88;68.68;98480.50;4993362;28;103182;-55
2023/04/20 04:30:43;;;;;;;6.17;5.33;;;;;;;5.14;69.80;98474.69;4990864;28;103549;-56
2023/04/20 04:33:13;;;;;;;6.55;5.85;;;;;;;4.99;69.17;98477.31;4988494;28;103051;-56
2023/04/20 04:35:44;;;;;;;6.95;5.88;;;;;;;4.67;71.61;98489.44;4994452;28;102718;-56
2023/04/20 04:38:13;;;;;;;6.10;5.50;;;;;;;4.80;72.04;98479.22;4989393;28;103775;-56
2023/04/20 04:40:46;;;;;;;5.93;5.35;;;;;;;4.79;69.88;98483.59;4988115;28;103101;-56
2023/04/20 04:43:14;;;;;;;6.70;6.10;;;;;;;4.34;72.48;98480.72;4994530;28;102612;-56
2023/04/20 04:45:50;;;;;;;6.55;5.68;;;;;;;4.74;72.99;98484.75;4982846;28;103801;-55
2023/04/20 04:48:19;;;;;;;7.15;6.43;;;;;;;4.35;72.86;98487.66;4995365;28;104438;-56
2023/04/20 04:50:47;;;;;;;6.63;5.93;;;;;;;4.85;72.80;98478.03;4989406;28;103224;-56
2023/04/20 04:53:15;;;;;;;9.47;6.47;;;;;;;4.78;71.78;98471.41;4992561;28;102970;-56
2023/04/20 04:55:45;;;;;;;7.65;6.95;;;;;;;4.54;73.19;98478.78;4990296;28;102919;-56
2023/04/20 04:58:15;;;;;;;6.37;5.77;;;;;;;4.86;72.83;98474.47;4993716;28;103484;-56
2023/04/20 05:00:43;;;;;;;5.53;4.90;;;;;;;5.25;71.71;98472.34;4986634;28;104225;-56
2023/04/20 05:03:12;;;;;;;5.57;5.07;;;;;;;5.50;70.53;98476.25;4987342;28;102729;-56
2023/04/20 05:05:40;;;;;;;5.93;5.40;;;;;;;5.35;70.47;98483.19;4992284;27;102672;-56
2023/04/20 05:08:08;;;;;;;7.95;6.35;;;;;;;5.29;69.57;98475.66;5000534;28;103547;-57
2023/04/20 05:10:36;;;;;;;7.37;6.63;;;;;;;5.35;69.95;98483.19;4997787;28;105595;-56
2023/04/20 05:13:04;;;;;;;7.05;6.35;;;;;;;5.04;72.72;98483.13;4993720;28;102953;-56
2023/04/20 05:15:34;;;;;;;6.03;5.43;;;;;;;5.49;71.80;98479.78;4994973;28;102775;-56
2023/04/20 05:18:02;;;;;;;6.28;5.68;;;;;;;5.67;70.76;98484.03;4993310;28;103511;-56
2023/04/20 05:20:30;;;;;;;8.60;6.60;;;;;;;5.49;71.08;98485.03;4988268;28;102860;-56
2023/04/20 05:22:58;;;;;;;7.93;6.18;;;;;;;5.88;70.69;98487.22;4990890;28;102581;-57
2023/04/20 05:25:26;;;;;;;6.20;5.60;;;;;;;5.95;70.50;98484.16;4991692;28;102700;-56
2023/04/20 05:27:56;;;;;;;7.68;5.90;;;;;;;6.06;70.54;98487.06;4988479;28;103393;-57
2023/04/20 05:30:26;;;;;;;7.15;5.95;;;;;;;6.19;70.58;98490.66;4986087;28;104249;-56
2023/04/20 05:32:55;;;;;;;6.47;5.78;;;;;;;6.27;69.78;98496.28;4985527;28;102929;-56
2023/04/20 05:35:23;;;;;;;6.53;5.75;;;;;;;6.32;69.51;98491.63;4984348;28;102773;-57
2023/04/20 05:37:51;;;;;;;7.40;6.00;;;;;;;6.47;68.93;98483.78;4990128;28;104356;-56
2023/04/20 05:40:19;;;;;;;8.35;6.38;;;;;;;6.47;68.28;98491.66;4984760;28;104449;-56
2023/04/20 05:42:47;;;;;;;7.03;5.75;;;;;;;6.74;68.03;98490.00;4986074;28;102637;-56
2023/04/20 05:45:15;;;;;;;8.35;6.05;;;;;;;6.82;67.70;98491.22;4981868;28;102810;-56
2023/04/20 05:47:52;;;;;;;6.23;5.63;;;;;;;6.96;67.01;98485.16;4995714;28;103299;-56
2023/04/20 05:50:23;;;;;;;6.78;6.07;;;;;;;7.10;66.96;98487.78;4989213;28;104500;-56
2023/04/20 05:52:51;;;;;;;7.40;6.53;;;;;;;7.11;66.37;98481.59;4997047;28;103343;-57
2023/04/20 05:55:19;;;;;;;6.47;5.82;;;;;;;7.15;66.05;98477.84;4986397;28;102962;-56
2023/04/20 05:57:51;;;;;;;8.43;7.13;;;;;;;6.53;67.74;98476.41;4993298;28;103625;-56
2023/04/20 06:00:20;;;;;;;6.57;5.90;;;;;;;6.60;67.91;98471.59;4991092;27;104172;-56
2023/04/20 06:02:53;;;;;;;7.90;7.07;;;;;;;6.15;68.61;98478.63;4991255;28;102973;-56
2023/04/20 06:05:22;;;;;;;7.63;6.88;;;;;;;5.89;69.95;98478.44;4995194;28;102841;-56
2023/04/20 06:07:50;;;;;;;6.90;6.20;;;;;;;6.69;68.49;98481.56;4995054;28;104523;-56
2023/04/20 06:10:18;;;;;;;8.47;7.47;;;;;;;5.80;70.26;98479.78;4999000;27;103476;-56
2023/04/20 06:12:47;;;;;;;7.57;6.85;;;;;;;5.79;71.81;98481.53;4991064;27;103274;-56
2023/04/20 06:15:15;;;;;;;7.68;6.78;;;;;;;6.62;69.88;98469.75;4988421;28;102775;-56
2023/04/20 06:17:46;;;;;;;7.75;6.95;;;;;;;6.22;70.39;98473.88;5001256;28;103120;-56
2023/04/20 06:20:16;;;;;;;9.10;7.97;;;;;;;5.10;73.67;98483.66;4967721;28;103049;-56
2023/04/20 06:22:45;;;;;;;7.82;7.07;;;;;;;6.28;72.31;98477.00;4997950;28;102896;-56
2023/04/20 06:25:14;;;;;;;9.35;7.45;;;;;;;5.72;73.36;98472.34;4984870;28;102834;-56
2023/04/20 06:27:42;;;;;;;8.10;7.30;;;;;;;5.76;72.41;98476.47;4989164;28;104703;-56
2023/04/20 06:30:12;;;;;;;7.90;7.10;;;;;;;5.75;73.77;98480.00;4983627;28;103116;-56
2023/04/20 06:32:40;;;;;;;8.00;7.20;;;;;;;6.63;71.79;98469.66;4989623;28;102570;-56
2023/04/20 06:35:08;;;;;;;7.60;6.80;;;;;;;6.90;69.45;98469.78;4988435;28;102602;-56
2023/04/20 06:37:39;;;;;;;7.00;5.55;;;;;;;7.69;67.23;98464.78;4986630;28;104360;-56
2023/04/20 06:40:09;;;;;;;6.20;5.60;;;;;;;8.00;65.40;98462.69;4986125;28;104321;-56
2023/04/20 06:42:37;;;;;;;6.47;5.80;;;;;;;7.90;65.21;98463.38;4982827;28;102624;-56
2023/04/20 06:45:06;;;;;;;6.50;5.90;;;;;;;8.51;64.25;98458.41;4996428;28;102811;-56
2023/04/20 06:47:34;;;;;;;6.93;5.90;;;;;;;8.30;62.46;98466.91;4989328;28;103634;-57
2023/04/20 06:50:08;;;;;;;6.27;5.40;;;;;;;8.73;62.10;98456.00;4999356;28;103081;-56
2023/04/20 06:52:37;;;;;;;7.03;6.00;;;;;;;8.54;61.64;98463.47;4985111;28;102792;-56
2023/04/20 06:55:05;;;;;;;7.65;6.65;;;;;;;7.75;63.61;98459.97;4985481;28;102999;-57
2023/04/20 06:57:37;;;;;;;9.80;6.50;;;;;;;7.65;63.68;98465.91;4986534;28;103374;-56
2023/04/20 07:00:07;;;;;;;7.28;6.30;;;;;;;7.35;66.02;98464.31;4985969;28;103282;-56
2023/04/20 07:02:42;;;;;;;6.63;5.85;;;;;;;8.50;64.06;98451.47;4983799;28;102830;-57
2023/04/20 07:05:11;;;;;;;7.70;6.90;;;;;;;7.88;63.65;98457.38;4989690;28;103206;-57
2023/04/20 07:07:42;;;;;;;6.93;6.22;;;;;;;8.73;63.13;98456.00;4988559;28;103397;-56
2023/04/20 07:10:12;;;;;;;8.33;7.53;;;;;;;8.98;61.96;98443.78;4988560;28;103658;-57
2023/04/20 07:12:43;;;;;;;8.20;7.40;;;;;;;8.09;65.28;98446.28;4986973;28;104299;-57
2023/04/20 07:15:11;;;;;;;7.93;6.93;;;;;;;8.37;64.38;98447.97;4991302;28;102864;-56
2023/04/20 07:17:39;;;;;;;8.50;7.70;;;;;;;7.95;66.01;98453.41;4981395;28;104315;-56
2023/04/20 07:20:08;;;;;;;8.68;7.47;;;;;;;7.97;65.77;98443.66;4985160;28;104607;-56
2023/04/20 07:22:38;;;;;;;8.55;6.80;;;;;;;8.48;64.70;98447.22;4981207;28;102682;-56
2023/04/20 07:25:08;;;;;;;9.37;8.43;;;;;;;9.33;62.66;98440.34;4987285;28;103037;-56
2023/04/20 07:27:37;;;;;;;8.50;7.37;;;;;;;8.48;62.45;98447.22;4989848;28;103677;-56
2023/04/20 07:30:09;;;;;;;8.93;7.78;;;;;;;8.24;64.36;98441.81;4982519;28;104314;-56
2023/04/20 07:32:39;;;;;;;6.72;6.13;;;;;;;9.59;62.82;98438.47;4985962;28;103034;-56
2023/04/20 07:35:08;;;;;;;7.67;6.50;;;;;;;9.95;60.38;98442.00;4995753;28;103124;-56
2023/04/20 07:37:36;;;;;;;7.30;6.60;;;;;;;10.07;60.06;98438.47;4992028;28;105197;-55
2023/04/20 07:40:06;;;;;;;7.63;6.78;;;;;;;10.77;58.58;98436.66;4993004;28;104306;-56
2023/04/20 07:42:35;;;;;;;7.30;6.60;;;;;;;10.84;57.98;98436.03;4987421;28;102956;-56
2023/04/20 07:45:04;;;;;;;8.00;6.78;;;;;;;10.65;57.91;98437.56;4988513;28;102772;-56
2023/04/20 07:47:34;;;;;;;8.00;7.20;;;;;;;8.60;62.25;98434.09;4986249;28;104397;-56
2023/04/20 07:50:03;;;;;;;7.80;7.00;;;;;;;9.43;61.76;98437.88;4999932;28;103356;-56
2023/04/20 07:52:31;;;;;;;8.87;7.83;;;;;;;8.87;65.02;98438.41;4992373;28;102781;-55
2023/04/20 07:54:59;;;;;;;7.25;6.55;;;;;;;10.39;59.92;98434.28;4987671;28;102582;-55
2023/04/20 07:57:28;;;;;;;8.73;7.00;;;;;;;9.95;60.58;98436.72;4987332;28;103682;-56
2023/04/20 07:59:57;;;;;;;8.50;7.60;;;;;;;9.64;61.15;98438.13;4988999;28;103624;-56
2023/04/20 08:02:25;;;;;;;8.13;7.32;;;;;;;8.84;63.36;98446.53;4988979;28;102914;-56
2023/04/20 08:04:54;;;;;;;8.35;7.53;;;;;;;9.52;62.23;98439.00;4985623;28;102772;-55
2023/04/20 08:07:22;;;;;;;8.63;7.28;;;;;;;9.22;62.06;98442.03;4989010;28;103456;-55
2023/04/20 08:09:50;;;;;;;7.35;6.72;;;;;;;11.81;56.56;98430.94;4985668;28;104651;-55
2023/04/20 08:12:18;;;;;;;8.65;7.22;;;;;;;11.63;57.76;98432.38;4981260;28;103232;-56
2023/04/20 08:14:46;;;;;;;7.60;6.90;;;;;;;12.07;55.34;98426.16;5000101;28;102795;-56
2023/04/20 08:17:16;;;;;;;7.07;6.28;;;;;;;12.24;55.13;98430.06;4986292;28;104350;-56
2023/04/20 08:19:44;;;;;;;8.80;7.90;;;;;;;11.21;56.00;98433.16;4985504;28;105287;-56
2023/04/20 08:22:14;;;;;;;7.50;6.78;;;;;;;11.88;56.13;98423.31;4987612;28;103018;-56
2023/04/20 08:24:42;;;;;;;9.48;7.43;;;;;;;11.19;56.06;98425.38;4988095;28;102691;-56
2023/04/20 08:27:10;;;;;;;8.38;7.45;;;;;;;8.80;63.70;98418.69;4989850;28;104508;-55
2023/04/20 08:29:38;;;;;;;7.78;7.07;;;;;;;10.53;60.86;98428.78;4985802;28;103334;-56
2023/04/20 08:32:08;;;;;;;7.68;6.97;;;;;;;11.41;58.62;98422.69;4987862;28;102693;-56
2023/04/20 08:34:36;;;;;;;9.00;7.65;;;;;;;10.47;57.72;98423.97;4989983;28;102737;-56
2023/04/20 08:37:05;;;;;;;7.90;7.13;;;;;;;11.21;58.16;98414.66;4987407;28;104615;-56
2023/04/20 08:39:35;;;;;;;8.38;7.50;;;;;;;10.70;59.56;98416.91;4980029;28;103007;-56
2023/04/20 08:42:06;;;;;;;8.38;7.57;;;;;;;11.00;58.00;98423.31;4985826;28;102669;-56
2023/04/20 08:44:34;;;;;;;9.05;8.15;;;;;;;11.07;57.20;98419.25;4989584;27;102774;-56
2023/04/20 08:47:03;;;;;;;8.02;7.22;;;;;;;10.74;59.92;98416.59;4988700;28;104376;-57
2023/04/20 08:49:31;;;;;;;7.40;6.75;;;;;;;10.89;60.33;98420.66;4988980;28;105131;-57
2023/04/20 08:51:59;;;;;;;9.90;8.25;;;;;;;9.41;63.44;98420.47;4988150;28;102627;-56
2023/04/20 08:54:27;;;;;;;9.07;7.75;;;;;;;10.13;61.02;98422.22;4992602;28;102797;-56
2023/04/20 08:56:58;;;;;;;7.97;7.22;;;;;;;10.44;61.22;98422.41;4986001;28;104462;-56
2023/04/20 08:59:29;;;;;;;7.78;7.07;;;;;;;11.28;58.79;98415.88;4987871;28;104353;-56
2023/04/20 09:02:08;;;;;;;8.43;7.25;;;;;;;11.12;58.82;98418.88;4991883;28;102585;-56
2023/04/20 09:04:36;;;;;;;8.20;7.40;;;;;;;11.30;59.07;98420.06;4984576;28;102896;-57
2023/04/20 09:07:04;;;;;;;8.13;7.35;;;;;;;11.45;58.28;98418.00;4984945;28;103335;-56
2023/04/20 09:09:32;;;;;;;8.10;6.03;;;;;;;10.86;60.31;98414.81;4993964;28;104304;-56
2023/04/20 09:12:03;;;;;;;7.93;6.57;;;;;;;10.48;59.67;98412.47;4986171;27;102691;-57
2023/04/20 09:14:42;;;;;;;7.40;6.50;;;;;;;10.57;62.49;98414.41;4985362;28;102634;-57
2023/04/20 09:17:13;;;;;;;8.70;6.90;;;;;;;9.55;64.01;98417.69;4993324;28;103382;-57
2023/04/20 09:19:44;;;;;;;7.13;6.43;;;;;;;10.30;63.54;98416.50;4987217;28;104385;-57
2023/04/20 09:22:12;;;;;;;7.70;7.00;;;;;;;10.44;62.63;98408.38;4984619;28;102708;-57
2023/04/20 09:24:41;;;;;;;7.20;6.50;;;;;;;10.76;62.46;98414.66;4986005;28;102752;-57
2023/04/20 09:27:17;;;;;;;7.80;6.60;;;;;;;10.56;62.80;98409.22;4985882;28;104476;-56
2023/04/20 09:29:57;;;;;;;6.90;6.30;;;;;;;10.67;62.84;98407.44;4989109;27;103304;-56
2023/04/20 09:32:27;;;;;;;9.73;6.57;;;;;;;10.56;62.78;98407.41;4985870;28;102653;-56
2023/04/20 09:34:56;;;;;;;8.83;6.90;;;;;;;10.38;61.95;98404.41;4992573;28;102758;-57
2023/04/20 09:37:25;;;;;;;6.50;5.63;;;;;;;10.72;61.84;98402.63;4991016;28;104473;-57
2023/04/20 09:39:59;;;;;;;6.80;6.13;;;;;;;10.95;61.54;98398.19;4987537;28;103084;-56
2023/04/20 09:42:32;;;;;;;6.10;5.50;;;;;;;11.15;61.80;98394.84;4970267;28;102839;-57
2023/04/20 09:45:02;;;;;;;6.67;5.60;;;;;;;11.26;61.46;98391.31;4985312;28;102754;-56
2023/04/20 09:47:30;;;;;;;7.27;6.17;;;;;;;11.22;61.48;98393.41;4986640;28;103304;-57
2023/04/20 09:50:00;;;;;;;8.23;6.90;;;;;;;10.64;61.77;98394.47;4988492;28;103425;-56
2023/04/20 09:52:49;;;;;;;6.73;6.03;;;;;;;10.84;61.03;98396.41;4989563;28;102640;-56
2023/04/20 09:55:19;;;;;;;7.90;6.23;;;;;;;10.80;61.83;98388.84;4984753;28;103688;-57
2023/04/20 09:57:51;;;;;;;8.53;6.57;;;;;;;10.69;62.06;98397.63;4987943;28;103687;-56
2023/04/20 10:00:21;;;;;;;8.30;6.33;;;;;;;10.80;61.88;98392.34;4980751;28;103079;-56
2023/04/20 10:02:49;;;;;;;6.07;5.53;;;;;;;10.93;60.70;98394.84;4986643;28;102752;-57
2023/04/20 10:05:17;;;;;;;7.40;5.90;;;;;;;11.09;61.49;98394.50;4984199;28;102775;-58
2023/04/20 10:07:46;;;;;;;8.20;5.67;;;;;;;11.02;61.80;98387.03;4984955;28;103496;-56
2023/04/20 10:10:15;;;;;;;7.60;6.80;;;;;;;10.81;62.74;98388.72;4985673;28;103185;-57
2023/04/20 10:12:48;;;;;;;7.17;6.20;;;;;;;10.79;61.05;98393.28;4987923;28;103058;-57
2023/04/20 10:15:20;;;;;;;6.40;5.77;;;;;;;10.79;61.74;98388.00;4992715;28;102593;-57
2023/04/20 10:17:48;;;;;;;7.17;6.13;;;;;;;10.90;61.57;98389.81;4981822;28;103398;-57
2023/04/20 10:20:21;;;;;;;8.00;7.20;;;;;;;10.85;61.86;98379.59;4990858;28;103108;-57
2023/04/20 10:22:51;;;;;;;6.40;5.77;;;;;;;11.09;60.53;98378.63;4998800;28;102700;-56
2023/04/20 10:25:21;;;;;;;8.67;6.80;;;;;;;10.96;60.39;98369.03;4970158;28;102620;-57
2023/04/20 10:27:57;;;;;;;9.53;6.33;;;;;;;9.90;63.70;98366.69;4976075;28;103411;-57
2023/04/20 10:30:27;;;;;;;8.70;6.50;;;;;;;10.45;64.05;98373.06;4980090;28;103744;-57
2023/04/20 10:33:04;;;;;;;7.57;6.30;;;;;;;10.73;62.35;98372.63;4984820;28;103002;-56
2023/04/20 10:35:42;;;;;;;6.03;5.43;;;;;;;10.77;61.97;98373.22;4982333;28;102720;-56
2023/04/20 10:38:13;;;;;;;7.30;6.60;;;;;;;10.87;62.31;98372.38;4985759;28;104393;-56
2023/04/20 10:40:41;;;;;;;7.03;6.33;;;;;;;10.53;63.57;98364.53;4982157;28;106596;-56
2023/04/20 10:43:20;;;;;;;9.67;6.30;;;;;;;10.33;64.03;98363.47;4977524;28;102713;-57
2023/04/20 10:45:50;;;;;;;8.10;6.80;;;;;;;9.81;66.76;98364.72;4982095;27;103271;-56
2023/04/20 10:48:18;;;;;;;8.53;7.17;;;;;;;9.89;67.66;98359.72;4974330;28;105085;-56
2023/04/20 10:50:46;;;;;;;9.03;7.30;;;;;;;10.38;67.83;98363.94;4975185;28;103134;-56
2023/04/20 10:53:20;;;;;;;7.00;6.33;;;;;;;10.33;67.47;98352.91;4982473;28;102731;-56
2023/04/20 10:55:58;;;;;;;7.43;6.07;;;;;;;9.84;69.84;98339.91;4984362;28;103076;-56
2023/04/20 10:58:26;;;;;;;8.97;5.63;;;;;;;9.55;70.22;98336.78;4973009;28;103080;-55
2023/04/20 11:01:00;;;;;;;8.33;5.73;;;;;;;9.24;72.63;98329.41;4981140;28;108429;-56
2023/04/20 11:03:29;;;;;;;5.93;5.23;;;;;;;8.81;75.46;98320.31;4981681;28;102626;-57
2023/04/20 11:06:00;;;;;;;6.57;4.93;;;;;;;9.21;73.59;98317.31;4974667;28;102775;-56
2023/04/20 11:08:39;;;;;;;8.30;4.73;;;;;;;8.56;75.55;98322.00;4994938;27;103280;-56
2023/04/20 11:11:18;;;;;;;5.30;4.40;;;;;;;8.61;76.09;98319.91;4968541;28;107358;-56
2023/04/20 11:13:47;;;;;;;5.90;5.23;;;;;;;9.23;74.53;98315.41;4973860;28;103268;-57
2023/04/20 11:16:18;;;;;;;5.70;5.20;;;;;;;8.90;75.09;98315.19;4982936;28;103940;-57
2023/04/20 11:18:51;;;;;;;6.83;5.60;;;;;;;9.56;74.53;98317.38;4977833;28;103188;-56
2023/04/20 11:21:20;;;;;;;6.63;5.30;;;;;;;9.54;74.50;98313.16;4971270;28;103732;-57
2023/04/20 11:23:49;;;;;;;5.70;5.10;;;;;;;9.49;74.75;98308.22;4976314;28;103126;-56
2023/04/20 11:26:17;;;;;;;7.00;5.47;;;;;;;9.02;77.30;98302.94;4982330;28;102661;-56
2023/04/20 11:28:52;;;;;;;7.00;6.37;;;;;;;8.92;78.26;98307.22;4978375;28;104330;-56
2023/04/20 11:31:26;;;;;;;7.00;6.30;;;;;;;8.72;77.93;98296.31;4979637;28;104362;-56
2023/04/20 11:33:55;;;;;;;6.77;6.07;;;;;;;9.03;78.28;98296.72;4979378;27;102682;-56
2023/04/20 11:36:25;;;;;;;7.80;6.43;;;;;;;9.07;78.37;98303.44;4994635;27;102935;-56
2023/04/20 11:38:54;;;;;;;7.13;6.07;;;;;;;9.36;78.55;98302.19;5000480;27;104391;-56
2023/04/20 11:41:22;;;;;;;7.00;6.13;;;;;;;9.51;76.75;98308.97;4993013;27;103772;-57
2023/04/20 11:43:50;;;;;;;7.03;6.43;;;;;;;9.60;75.71;98308.25;5002867;27;103066;-57
2023/04/20 11:46:21;;;;;;;7.77;6.97;;;;;;;9.44;76.99;98310.38;5008175;27;102645;-57